Terminal Aerodrome Forecast
Issued by NWS

Current Version | Previous Version | Text Only | Print | Product List | Glossary On
Versions: 1 2 3 4 5 6 7 8 9 10 11 12 13 14 15 16
000
FTUS44 KJAN 291129
TAFHKS
TAF
KHKS 291129Z 2912/3012 17008KT P6SM OVC006
     FM291500 17008KT P6SM OVC015
     FM291600 18006KT P6SM SCT030
     FM292000 17006KT P6SM VCTS BKN050CB
     FM300000 VRB03KT P6SM OVC100
     FM300900 16004KT P6SM OVC007=

USA.gov is the U.S. government's official web portal to all federal, state and local government web resources and services.